Date,TemperatureHighF,TemperatureAvgF,TemperatureLowF,DewpointHighF,DewpointAvgF,DewpointLowF,HumidityHigh,HumidityAvg,HumidityLow,PressureMaxIn,PressureMinIn,WindSpeedMaxMPH,WindSpeedAvgMPH,GustSpeedMaxMPH,PrecipitationSumIn
2013-1-1,35.6,26.0,17.4,25.1,13.9,2.8,75,60,43,29.77,29.56,8,4,17,0.00
2013-1-2,26.2,18.8,9.1,19.7,8.2,-3.7,81,63,54,29.97,29.68,8,4,16,0.00
2013-1-3,30.0,19.7,8.2,23.5,10.1,-4.2,79,66,55,29.96,29.70,8,3,21,0.00
2013-1-4,38.3,32.5,27.9,23.0,20.4,16.2,72,61,48,29.73,29.60,14,7,34,0.01
2013-1-5,39.2,32.6,26.1,25.8,22.1,17.7,75,65,55,30.01,29.73,10,3,22,0.00
2013-1-6,39.6,35.0,28.6,31.1,28.2,22.8,90,76,65,29.84,29.62,9,3,17,0.01
2013-1-7,36.1,26.4,14.4,30.9,18.9,8.5,85,73,60,30.13,29.77,6,2,13,2.86
2013-1-8,45.9,29.8,21.6,25.0,19.0,15.6,80,65,41,29.90,29.74,4,1,11,0.00
2013-1-9,51.4,35.5,17.2,35.2,25.2,11.4,86,67,52,29.88,29.52,14,5,34,0.00
2013-1-10,48.9,37.2,27.9,32.0,26.0,22.0,86,65,49,30.16,29.85,8,2,29,0.00
2013-1-11,41.0,37.6,30.7,36.5,30.3,24.7,87,75,62,30.04,29.50,10,6,18,0.07
2013-1-12,52.3,45.4,39.9,46.8,41.8,36.2,94,87,78,29.61,29.55,6,3,12,0.00
2013-1-13,59.4,52.2,44.1,51.5,47.7,42.7,95,85,73,29.59,29.36,9,4,19,0.00
2013-1-14,53.6,39.6,30.9,48.7,30.1,17.9,90,69,50,29.95,29.32,8,3,17,0.02
2013-1-15,42.1,31.6,28.6,23.2,20.0,16.0,77,63,43,29.96,29.77,5,2,10,0.00
2013-1-16,40.3,32.6,30.2,30.6,25.2,19.0,87,74,50,29.77,29.35,6,3,14,0.00
2013-1-17,36.7,28.0,19.6,27.3,15.4,5.7,74,59,45,29.76,29.42,9,4,21,0.00
2013-1-18,29.8,21.7,13.8,16.8,7.1,-4.6,78,55,24,29.97,29.63,9,3,20,0.00
2013-1-19,48.9,40.7,29.8,29.9,22.3,12.9,66,48,37,29.64,29.19,10,4,23,0.00
2013-1-20,48.4,32.8,20.5,36.2,15.7,3.4,80,50,31,29.63,28.99,18,8,49,0.19
2013-1-21,23.7,20.8,17.1,10.5,5.4,2.2,59,51,45,29.62,29.42,8,4,22,0.00
2013-1-22,18.1,13.2,8.1,2.5,-7.6,-16.2,67,40,23,29.73,29.43,13,8,27,0.17
2013-1-23,11.1,5.8,-2.6,2.9,-5.3,-14.6,69,59,51,29.79,29.68,4,1,8,0.00
2013-1-24,26.8,5.8,-12.3,11.2,-6.2,-24.4,68,57,43,30.05,29.67,7,2,15,0.00
2013-1-25,19.6,12.7,5.9,5.6,1.9,-3.0,71,62,44,30.04,29.67,4,2,9,0.00
2013-1-26,31.8,22.9,3.7,28.4,13.5,-5.3,89,67,57,30.06,29.91,8,3,13,3.32
2013-1-27,36.0,21.1,11.8,14.9,8.8,2.4,79,60,34,30.17,29.99,4,1,8,0.08
2013-1-28,37.2,30.4,19.4,34.9,24.2,9.4,92,78,54,30.02,29.48,8,4,15,0.13
2013-1-29,48.0,38.3,32.2,47.6,36.8,30.4,99,94,91,29.69,29.44,7,2,13,0.18
2013-1-30,61.3,55.6,46.6,53.7,50.2,45.8,98,82,73,29.43,28.71,12,7,24,0.07
2013-1-31,54.1,34.1,23.5,52.1,20.6,3.8,94,59,34,29.30,28.64,22,11,37,0.46
2013-2-1,27.5,21.6,18.3,16.7,10.4,2.0,83,62,37,29.80,29.30,10,5,21,0.00
2013-2-2,22.1,17.7,7.7,13.7,5.6,-0.5,78,59,44,29.80,29.59,9,4,18,0.00
2013-2-3,31.6,16.8,0.0,14.7,5.0,-9.7,74,60,32,29.60,29.40,7,2,14,0.00
2013-2-4,28.2,21.2,17.8,11.1,6.7,3.3,71,53,38,29.57,29.44,12,5,23,0.00
2013-2-5,30.4,21.0,12.4,12.2,7.8,-2.0,73,57,35,29.60,29.47,6,2,11,0.00
2013-2-6,31.6,23.4,8.1,22.7,9.2,-2.2,83,56,27,30.01,29.48,9,3,21,0.00
2013-2-7,30.7,20.8,5.7,14.5,6.4,-3.1,74,54,41,30.08,29.74,9,4,17,0.00
2013-2-8,86.5,29.4,20.7,29.3,22.0,13.2,90,75,50,29.75,29.42,23,6,23,0.00
2013-2-9,25.7,19.2,5.0,17.0,12.7,-2.5,86,76,65,30.03,29.63,5,2,14,0.00
2013-2-10,39.2,20.1,-6.0,19.1,5.8,-15.3,76,55,30,30.04,29.64,9,3,17,0.04
2013-2-11,48.0,38.7,34.5,37.1,27.5,17.4,82,64,47,29.64,29.20,13,8,27,0.08
2013-2-12,37.8,34.5,31.8,29.1,24.1,19.6,85,66,51,29.58,29.33,13,7,30,0.04
2013-2-13,49.5,32.2,16.9,24.6,19.2,10.4,81,61,27,29.54,29.35,6,2,11,0.00
2013-2-14,41.7,32.0,16.3,32.7,23.7,9.9,87,72,50,29.55,29.40,6,3,13,0.07
2013-2-15,43.0,36.2,27.5,34.1,22.9,8.7,86,59,41,29.67,29.39,12,5,29,0.02
2013-2-16,43.9,25.5,12.0,18.6,12.1,2.3,80,58,28,29.67,29.57,4,2,10,0.00
2013-2-17,22.1,17.1,13.3,8.5,5.2,-1.5,74,60,41,29.75,29.49,9,4,19,0.00
2013-2-18,32.5,21.9,12.7,12.8,6.6,2.9,72,52,32,29.89,29.60,6,3,19,0.04
2013-2-19,38.7,33.8,27.1,33.3,21.7,8.7,85,62,45,29.60,29.18,12,6,29,0.07
2013-2-20,28.8,24.4,21.4,18.0,10.3,4.4,77,55,38,29.63,29.36,12,8,27,0.00
2013-2-21,21.4,18.5,14.0,15.8,9.9,5.0,81,69,58,30.03,29.60,10,4,24,0.00
2013-2-22,36.0,25.3,8.6,26.0,15.9,1.2,78,67,54,30.00,29.67,11,4,24,0.00
2013-2-23,41.2,35.9,33.1,33.5,28.2,22.4,85,73,62,29.68,29.48,10,4,21,0.02
2013-2-24,35.4,32.5,30.0,27.6,23.4,20.5,84,69,57,29.65,29.45,7,3,15,0.01
2013-2-25,47.3,35.5,26.8,29.1,25.7,20.9,83,68,39,29.86,29.65,4,2,12,0.01
2013-2-26,45.0,34.6,21.2,29.3,23.3,16.6,85,65,42,29.85,29.52,10,4,20,0.00
2013-2-27,41.0,35.5,32.9,36.7,31.6,28.1,91,86,77,29.52,29.18,11,3,22,0.65
2013-2-28,43.5,36.5,33.1,33.5,30.9,29.3,92,80,58,29.32,29.13,6,3,14,0.17
2013-3-1,34.3,31.7,27.3,30.9,25.8,20.4,87,79,69,29.53,29.31,4,1,12,0.02
2013-3-2,30.7,26.2,24.3,21.7,18.6,15.7,82,73,62,29.54,29.46,6,2,14,0.00
2013-3-3,28.6,24.8,21.9,18.2,15.2,11.0,76,67,50,29.50,29.43,7,3,15,0.00
2013-3-4,34.5,27.4,23.7,19.7,16.7,14.2,74,64,48,29.64,29.47,10,5,21,0.00
2013-3-5,37.2,28.0,16.0,21.6,17.9,9.7,76,66,52,29.72,29.62,4,2,10,0.02
2013-3-6,44.1,33.9,15.3,31.2,24.9,9.6,83,70,53,29.75,29.56,9,4,17,0.00
2013-3-7,42.4,35.2,31.8,30.9,26.3,20.3,85,70,53,29.88,29.74,6,2,14,0.00
2013-3-8,46.4,33.9,23.0,25.9,22.1,16.9,87,64,34,30.00,29.85,7,2,17,0.02
2013-3-9,54.9,34.7,19.6,31.6,22.4,15.3,87,64,32,30.02,29.86,5,1,10,0.00
2013-3-10,60.1,45.5,29.8,33.2,27.4,20.6,75,51,32,29.86,29.62,10,4,17,0.00
2013-3-11,55.0,50.2,46.2,45.1,33.0,27.9,72,52,39,29.65,29.34,14,7,29,0.00
2013-3-12,56.3,44.2,37.0,47.4,36.6,25.6,94,75,53,29.52,29.33,11,4,27,0.27
2013-3-13,41.4,34.7,26.6,34.5,22.9,13.3,87,62,44,29.53,29.43,14,6,29,0.02
2013-3-14,35.1,26.8,19.9,19.0,8.8,0.9,74,48,24,29.65,29.51,12,7,30,0.00
2013-3-15,40.8,32.3,25.2,31.1,20.3,8.5,85,61,44,29.64,29.30,10,4,21,0.01
2013-3-16,31.6,26.2,18.5,18.4,12.0,7.7,71,55,44,29.59,29.45,6,2,11,0.00
2013-3-17,36.0,26.4,17.2,18.2,11.3,2.7,79,54,29,29.97,29.58,5,2,14,0.00
2013-3-18,36.5,26.1,15.4,27.4,14.6,2.6,91,65,27,29.97,29.43,12,5,19,0.00
2013-3-19,42.6,33.7,27.5,34.9,25.2,14.4,91,72,42,29.45,29.31,12,6,27,0.09
2013-3-20,39.9,30.0,25.0,20.9,15.7,9.2,65,56,33,29.45,29.39,12,6,23,0.00
2013-3-21,35.1,27.9,21.9,22.8,13.9,6.2,82,57,33,29.44,29.32,10,5,24,0.00
2013-3-22,37.0,30.1,25.2,26.1,21.9,18.0,84,72,51,29.50,29.30,10,5,20,0.05
2013-3-23,44.1,34.9,29.7,27.4,23.3,16.4,86,64,42,29.61,29.46,8,4,20,0.04
2013-3-24,46.2,35.1,27.5,28.7,21.7,17.7,77,59,37,29.60,29.37,6,2,12,0.00
2013-3-25,43.5,36.6,31.8,28.9,23.8,20.2,68,60,45,29.37,29.22,8,3,17,0.00
2013-3-26,52.0,39.0,29.8,32.6,27.4,22.6,85,65,35,29.54,29.31,6,1,19,0.00
2013-3-27,52.9,40.3,33.1,33.3,27.8,22.1,87,62,35,29.65,29.32,7,4,17,0.00
2013-3-28,52.9,40.9,33.4,34.3,29.9,22.6,87,67,35,29.81,29.62,6,3,14,0.01
2013-3-29,54.9,41.4,29.7,32.5,29.7,23.0,85,65,39,29.81,29.73,5,2,14,0.00
2013-3-30,56.3,37.1,26.6,30.6,19.8,6.3,86,54,22,29.92,29.45,9,3,15,0.09
2013-3-31,57.7,43.3,32.5,43.0,32.0,21.5,94,67,36,29.83,29.39,12,4,20,0.14
2013-4-1,42.4,37.3,27.5,40.3,26.2,10.7,95,67,29,29.69,29.31,14,4,26,0.05
2013-4-2,37.2,29.4,24.1,26.1,19.0,12.1,83,66,43,29.84,29.66,11,6,25,0.04
2013-4-3,41.2,32.4,26.6,25.4,16.4,6.0,82,53,27,30.11,29.81,8,4,21,0.02
2013-4-4,60.8,39.3,25.5,27.6,18.7,12.4,77,46,21,30.10,29.67,9,4,17,0.00
2013-4-5,49.8,39.1,31.1,31.6,24.6,16.5,77,56,43,29.88,29.62,8,3,21,0.00
2013-4-6,51.4,39.1,27.0,21.6,14.3,6.6,66,38,21,30.08,29.84,8,3,14,0.00
2013-4-7,75.4,52.5,41.5,46.4,31.7,20.2,74,47,28,29.84,29.47,14,8,30,0.00
2013-4-8,61.5,49.8,40.8,46.4,38.8,34.8,87,67,43,29.89,29.53,9,2,16,0.01
2013-4-9,67.1,53.7,46.2,52.0,46.4,42.7,96,77,51,29.86,29.51,8,4,21,0.00
2013-4-10,48.0,44.3,40.5,47.8,43.8,40.2,99,98,96,29.83,29.63,6,3,12,0.45
2013-4-11,40.6,36.4,33.3,40.4,33.2,24.3,99,89,60,29.90,29.71,8,4,14,0.21
2013-4-12,50.0,41.1,34.7,49.0,38.7,32.2,99,92,75,29.78,29.34,12,7,21,0.56
2013-4-13,49.1,43.5,40.5,39.9,35.7,31.1,86,74,53,29.68,29.51,11,5,18,0.00
2013-4-14,52.5,42.2,34.9,34.9,30.4,23.5,90,64,43,29.93,29.68,7,3,14,0.02
2013-4-15,73.9,49.2,31.3,50.8,36.9,26.6,90,65,41,29.96,29.79,11,5,17,0.00
2013-4-16,62.8,54.9,44.2,59.5,50.1,35.4,99,84,69,29.99,29.72,14,6,21,0.18
2013-4-17,59.0,46.8,32.4,42.5,35.7,28.7,99,68,35,30.11,29.92,6,2,13,0.01
2013-4-18,74.1,58.8,38.7,59.5,49.7,35.6,96,73,51,30.06,29.54,14,8,31,0.04
2013-4-19,77.9,60.1,43.2,63.1,52.9,32.8,95,78,60,29.61,29.15,14,9,36,0.33
2013-4-20,46.8,40.8,33.6,33.1,27.9,19.3,74,60,42,30.15,29.50,15,7,33,0.00
2013-4-21,49.1,38.3,27.7,30.4,20.9,7.0,79,52,22,30.43,30.15,5,2,11,0.00
2013-4-22,62.6,45.9,27.9,32.8,27.5,22.0,96,55,22,30.38,30.13,10,4,21,0.00
2013-4-23,55.9,46.6,39.7,40.7,33.8,27.4,82,61,46,30.13,29.67,11,6,20,0.33
2013-4-24,69.3,54.9,41.5,56.7,47.3,35.8,98,77,54,29.86,29.48,13,7,27,0.05
2013-4-25,64.0,47.7,37.6,40.2,32.2,22.0,95,59,21,30.18,29.85,9,4,22,0.06
2013-4-26,57.4,45.6,34.7,43.5,36.0,30.2,99,73,41,30.33,30.17,6,2,14,0.02
2013-4-27,75.6,51.6,32.2,43.8,36.3,29.5,99,64,22,30.32,30.10,5,2,11,0.00
2013-4-28,75.9,59.3,39.7,50.4,41.8,35.2,98,58,25,30.11,29.91,12,4,21,0.11
2013-4-29,65.1,56.5,50.9,56.9,51.1,44.8,99,82,67,29.97,29.88,10,7,17,0.12
2013-4-30,73.2,62.1,55.0,58.4,54.6,52.8,97,78,53,30.11,29.94,10,5,19,0.01
2013-5-1,80.4,64.4,51.8,54.0,44.0,30.4,89,54,18,30.24,30.11,10,3,20,0.00
2013-5-2,82.6,64.1,49.5,47.8,42.5,36.0,87,49,22,30.30,30.13,6,2,13,0.00
2013-5-3,80.6,65.2,49.3,52.6,46.5,42.1,91,55,28,30.19,30.09,7,3,15,0.00
2013-5-4,80.6,62.3,48.0,47.9,43.3,39.3,86,52,25,30.16,30.02,7,2,14,0.00
2013-5-5,84.7,63.7,46.0,51.0,46.1,38.2,98,59,22,30.06,29.95,6,2,13,0.00
2013-5-6,81.0,62.8,47.1,49.8,40.2,22.7,93,50,13,30.03,29.89,7,2,17,0.00
2013-5-7,83.7,65.9,50.0,59.6,53.7,48.1,99,68,34,29.99,29.88,7,2,14,0.00
2013-5-8,73.6,62.9,52.3,64.8,58.5,51.8,99,86,63,29.94,29.78,6,2,12,0.01
2013-5-9,79.0,62.8,52.2,62.2,56.9,51.4,99,83,52,29.83,29.74,5,2,10,0.00
2013-5-10,75.6,62.6,48.4,63.4,57.1,8.9,99,84,12,29.83,29.61,8,2,15,0.33
2013-5-11,62.4,56.8,48.7,60.4,53.6,46.9,99,90,65,29.65,29.53,7,3,17,0.26
2013-5-12,55.9,47.8,38.1,47.3,37.1,25.1,98,70,33,29.77,29.55,15,6,34,0.01
2013-5-13,55.4,44.3,37.9,36.8,33.1,26.1,88,66,35,29.98,29.77,9,5,21,0.00
2013-5-14,64.0,47.9,29.1,43.8,31.6,21.7,99,60,26,30.02,29.85,6,2,15,0.00
2013-5-15,84.7,59.4,43.0,61.8,45.4,30.9,95,61,41,29.85,29.39,9,4,24,0.11
2013-5-16,80.1,62.9,42.4,52.9,44.0,31.8,99,57,22,29.86,29.58,8,2,26,0.00
2013-5-17,73.4,55.9,38.1,49.3,43.1,32.9,99,68,25,30.10,29.86,4,1,11,0.00
2013-5-18,78.8,58.1,38.7,53.5,45.9,38.4,99,69,33,30.13,30.02,5,1,11,0.00
2013-5-19,77.2,65.5,57.7,64.0,58.9,53.4,92,80,63,30.04,29.90,7,4,15,0.00
2013-5-20,88.7,74.3,59.2,69.5,64.7,58.9,99,74,50,29.92,29.73,6,2,14,0.00
2013-5-21,90.9,71.8,60.1,75.3,67.3,59.8,99,87,53,29.93,29.63,8,2,18,0.59
2013-5-22,89.2,72.4,60.1,74.6,66.9,58.2,99,84,48,29.93,29.78,7,2,17,0.17
2013-5-23,79.3,68.0,47.3,70.1,62.6,47.0,99,84,58,29.97,29.83,7,2,14,0.46
2013-5-24,48.7,44.1,40.8,47.0,42.7,40.4,99,95,81,30.28,29.97,5,2,16,0.25
2013-5-25,63.7,51.6,42.1,42.4,38.8,33.7,92,64,35,30.30,30.23,8,3,21,0.00
2013-5-26,67.1,54.4,40.1,42.4,38.0,29.6,99,58,28,30.31,30.19,7,3,17,0.00
2013-5-27,75.4,58.8,41.2,47.9,38.8,20.6,93,54,15,30.38,30.26,4,1,11,0.00
2013-5-28,63.7,55.6,45.3,59.0,52.6,44.0,99,90,73,30.29,30.08,6,2,13,0.37
2013-5-29,85.6,70.3,58.8,72.8,64.8,58.6,99,84,54,30.15,30.03,7,2,16,0.59
2013-5-30,95.7,77.1,61.5,73.7,67.1,61.0,99,75,37,30.25,30.14,4,1,11,0.00
2013-5-31,95.4,78.7,63.9,72.8,67.0,61.8,99,72,37,30.21,30.05,6,2,11,0.00
2013-6-1,91.9,76.5,63.0,72.1,68.2,62.1,99,78,47,30.09,29.91,8,2,17,0.01
2013-6-2,82.9,72.3,57.2,71.3,65.4,54.3,99,81,47,30.00,29.82,10,3,23,0.11
2013-6-3,68.9,57.7,47.5,54.3,47.4,39.1,91,71,40,30.13,30.00,6,2,17,0.00
2013-6-4,74.8,58.0,43.0,50.1,43.2,32.2,99,65,24,30.28,30.12,5,1,14,0.00
2013-6-5,75.6,60.2,48.0,58.2,49.2,40.7,99,71,34,30.34,30.21,4,1,11,0.00
2013-6-6,59.2,56.2,53.1,57.7,54.0,47.1,99,93,68,30.22,29.99,18,3,18,1.90
2013-6-7,65.3,60.4,55.4,64.9,60.0,55.1,99,98,97,30.00,29.91,4,1,10,0.21
2013-6-8,68.5,60.7,56.5,62.6,59.0,56.2,99,94,79,30.20,29.90,3,1,9,0.01
2013-6-9,82.9,67.0,53.6,61.0,57.3,52.8,99,75,42,30.32,30.20,4,1,9,0.00
2013-6-10,69.6,64.4,58.3,66.8,62.1,49.0,99,93,76,30.28,29.87,6,3,17,0.33
2013-6-11,69.1,64.3,58.5,65.9,62.2,56.6,99,93,79,29.94,29.76,6,2,15,0.80
2013-6-12,82.2,66.1,52.0,60.7,56.3,51.4,99,74,41,30.06,29.92,4,1,10,0.01
2013-6-13,64.9,61.1,54.7,61.0,59.4,53.7,99,94,80,29.92,29.67,9,3,21,0.74
2013-6-14,79.5,64.9,50.2,62.9,57.5,49.9,99,79,50,30.08,29.89,5,2,14,0.01
2013-6-15,81.3,62.3,51.3,59.2,52.7,45.7,99,77,31,30.16,30.06,6,1,12,0.00
2013-6-16,80.1,66.6,59.2,68.8,61.9,56.6,99,85,63,30.07,29.83,5,2,14,0.27
2013-6-17,82.9,70.2,59.4,68.2,62.8,58.1,99,80,46,30.05,29.94,6,2,14,0.00
2013-6-18,74.7,62.9,52.0,61.5,54.8,47.5,99,78,42,30.15,30.02,6,2,14,0.00
2013-6-19,75.6,60.4,46.8,54.8,46.8,37.8,99,67,29,30.33,30.15,4,1,11,0.00
2013-6-20,80.6,61.1,45.5,57.2,47.3,35.9,99,68,22,30.37,30.32,4,1,10,0.00
2013-6-21,88.2,67.9,48.6,62.5,55.6,48.3,99,70,31,30.39,29.83,4,1,8,0.00
2013-6-22,92.3,74.9,59.0,76.8,68.2,58.7,99,82,47,29.85,29.69,5,1,12,0.06
2013-6-23,94.1,77.8,68.2,77.4,72.4,67.9,99,85,53,29.77,29.69,11,2,21,0.30
2013-6-24,95.2,80.6,68.2,75.2,70.0,64.0,99,73,44,29.73,29.62,6,2,17,0.00
2013-6-25,89.1,77.1,67.8,75.9,70.2,66.7,99,80,57,29.64,29.47,6,2,17,0.04
2013-6-26,91.0,76.7,68.5,74.8,70.1,66.7,99,82,52,29.51,29.47,5,2,11,0.24
2013-6-27,85.5,74.5,63.9,75.2,70.1,63.0,99,87,61,29.51,29.31,7,1,15,0.01
2013-6-28,70.9,66.6,62.1,67.9,65.2,61.5,99,95,84,29.31,29.19,4,1,11,0.77
2013-6-29,82.9,69.3,62.2,69.1,64.5,61.7,99,86,55,29.39,29.18,4,1,9,0.12
2013-6-30,86.2,72.3,63.5,70.4,66.1,62.7,99,83,56,29.61,29.38,6,1,11,0.00
2013-7-1,73.2,67.4,62.4,68.8,66.0,61.8,99,95,83,29.71,29.60,5,1,14,0.32
2013-7-2,87.3,69.7,61.9,75.1,66.4,61.3,99,90,65,29.80,29.69,3,1,11,0.05
2013-7-3,94.3,75.3,64.6,79.3,70.9,64.1,99,88,54,29.85,29.77,4,1,9,0.51
2013-7-4,91.8,77.9,69.3,77.9,73.0,69.0,99,86,52,29.87,29.78,4,1,9,0.06
2013-7-5,90.7,77.7,69.3,80.5,73.8,68.8,99,89,63,29.83,29.74,5,1,11,0.19
2013-7-6,94.5,79.0,67.6,74.3,70.3,14.4,99,78,45,29.83,29.71,4,1,8,0.01
2013-7-7,89.2,78.6,69.6,76.3,72.1,15.6,99,82,55,29.74,29.61,6,2,12,0.09
2013-7-8,90.9,76.8,68.2,77.1,71.1,67.4,99,84,54,29.74,29.65,5,1,10,0.18
2013-7-9,92.7,76.4,68.7,76.2,72.3,68.5,99,88,56,29.74,29.60,4,1,12,0.07
2013-7-10,91.8,79.5,72.3,77.3,73.1,65.4,99,82,58,29.60,29.40,9,3,21,0.17
2013-7-11,83.5,72.6,62.1,68.5,64.4,61.5,99,77,54,29.71,29.49,4,2,11,0.00
2013-7-12,82.8,70.0,60.4,69.0,63.6,60.2,99,82,53,29.86,29.70,3,1,9,0.00
2013-7-13,85.3,73.6,62.8,73.6,68.4,15.8,99,85,65,29.95,29.83,4,2,9,0.00
2013-7-14,95.4,79.7,65.8,78.0,71.6,65.6,99,79,52,30.00,29.93,4,1,10,0.00
2013-7-15,95.4,81.2,69.4,78.6,72.0,66.8,99,77,44,29.98,29.83,2,1,8,0.00
2013-7-16,96.6,81.4,66.0,74.9,70.3,65.8,99,73,42,29.95,29.88,2,1,7,0.00
2013-7-17,98.8,81.6,67.8,81.9,75.0,67.6,99,83,46,29.91,29.75,5,1,13,0.17
2013-7-18,97.0,83.0,74.3,79.5,76.6,73.4,99,82,51,29.77,29.62,6,1,14,0.11
2013-7-19,96.1,83.6,71.2,78.6,74.3,66.5,99,76,49,29.63,29.41,10,4,25,0.07
2013-7-20,84.7,73.8,66.0,73.5,69.2,16.6,99,87,13,29.57,29.40,6,2,18,0.34
2013-7-21,82.4,71.0,60.8,67.1,63.1,58.1,99,79,47,29.71,29.57,4,1,11,0.00
2013-7-22,87.8,71.8,58.5,70.9,65.0,58.2,99,81,53,29.69,29.48,4,1,8,0.02
2013-7-23,89.8,76.9,68.9,72.5,69.4,64.1,99,80,46,29.48,29.29,6,2,14,0.06
2013-7-24,73.8,65.0,52.2,64.1,55.9,50.3,99,74,47,29.73,29.36,5,2,18,0.00
2013-7-25,80.4,64.5,48.4,60.3,54.6,48.1,99,74,43,29.81,29.73,5,1,12,0.00
2013-7-26,85.8,67.3,50.0,65.1,56.3,49.6,99,73,36,29.78,29.70,3,1,9,0.00
2013-7-27,85.1,69.4,54.7,71.3,64.3,16.6,99,86,57,29.70,29.55,6,2,14,0.11
2013-7-28,80.8,70.4,61.2,70.9,66.0,60.6,99,87,58,29.82,29.51,4,1,12,0.09
2013-7-29,77.0,64.9,55.2,64.0,59.4,54.4,99,84,53,29.81,29.66,6,2,13,0.02
2013-7-30,84.4,68.5,58.6,65.5,61.0,58.2,99,79,46,29.88,29.77,5,1,11,0.00
2013-7-31,84.2,69.7,54.7,66.8,61.0,53.9,99,77,47,29.84,29.63,4,1,11,0.00
2013-8-1,83.5,70.6,61.0,73.4,65.7,60.4,99,86,53,29.64,29.45,6,2,17,0.18
2013-8-2,79.0,67.9,56.8,68.6,62.7,56.6,99,85,59,29.59,29.52,4,1,20,0.21
2013-8-3,82.6,69.9,60.6,67.0,61.2,54.0,99,78,41,29.60,29.49,5,1,15,0.20
2013-8-4,76.5,65.4,55.8,64.6,57.8,53.4,99,79,50,29.71,29.58,6,2,16,0.01
2013-8-5,82.6,65.5,49.1,61.4,55.0,47.8,99,74,31,29.78,29.70,4,1,12,0.00
2013-8-6,86.0,68.4,52.5,63.9,58.3,52.0,99,74,39,29.75,29.69,4,1,10,0.00
2013-8-7,80.8,72.2,64.9,71.2,66.8,62.8,97,83,69,29.71,29.59,7,3,20,0.00
2013-8-8,90.1,74.8,66.9,75.3,70.4,66.7,99,87,56,29.66,29.60,5,1,11,0.17
2013-8-9,83.1,71.5,63.1,74.8,69.1,62.3,99,93,64,29.61,29.53,3,0,9,0.22
2013-8-10,78.6,68.3,54.0,65.4,58.1,46.8,99,74,35,29.77,29.60,4,2,14,0.00
2013-8-11,84.2,66.3,50.2,63.2,57.3,49.9,99,77,46,29.83,29.73,4,1,10,0.00
2013-8-12,83.7,69.7,57.6,69.3,62.9,57.3,99,82,47,29.73,29.55,5,1,10,0.00
2013-8-13,80.1,68.4,60.6,72.4,62.9,50.5,99,84,57,29.55,29.42,5,2,17,0.26
2013-8-14,75.0,62.2,53.4,59.9,53.8,49.8,99,76,46,29.73,29.49,6,3,17,0.01
2013-8-15,81.0,63.2,48.4,60.2,54.3,48.1,99,77,42,29.81,29.72,6,1,15,0.00
2013-8-16,85.3,66.2,49.5,62.1,56.1,49.2,99,75,37,29.88,29.79,3,1,8,0.00
2013-8-17,89.1,67.5,51.8,65.8,58.6,51.3,99,78,40,29.99,29.88,4,1,9,0.00
2013-8-18,86.4,68.5,57.0,67.0,61.4,56.8,99,81,45,29.93,29.78,3,1,7,0.00
2013-8-19,90.1,71.9,56.3,68.5,62.2,56.0,99,77,36,29.80,29.71,4,1,9,0.01
2013-8-20,91.9,71.5,56.5,69.1,62.7,56.2,99,78,39,29.82,29.73,6,1,11,0.00
2013-8-21,91.2,73.3,57.9,71.2,65.0,57.5,99,79,43,29.85,29.70,5,1,10,0.00
2013-8-22,90.1,72.6,61.5,76.5,67.9,61.0,99,87,52,29.72,29.56,7,2,17,0.28
2013-8-23,79.9,67.9,54.3,68.8,59.9,53.5,99,79,46,29.89,29.65,5,1,11,0.01
2013-8-24,84.2,65.6,51.4,63.7,54.7,48.2,99,74,33,30.04,29.88,8,1,10,0.00
2013-8-25,86.4,67.4,49.6,67.9,59.4,49.4,99,79,40,30.01,29.81,5,1,13,0.00
2013-8-26,79.0,70.2,65.1,73.6,68.6,63.0,99,95,83,29.83,29.61,4,1,10,1.05
2013-8-27,92.8,74.6,66.4,75.3,70.4,66.1,99,89,54,29.64,29.57,4,0,8,0.01
2013-8-28,90.9,76.1,64.4,76.4,70.2,64.1,99,84,58,29.63,29.55,4,1,10,0.00
2013-8-29,88.9,73.6,62.1,76.2,68.1,8.6,99,85,59,29.73,29.62,3,1,9,0.00
2013-8-30,92.5,74.1,60.6,75.3,67.7,60.2,99,83,45,29.70,29.47,4,1,10,0.01
2013-8-31,88.7,75.2,68.5,76.9,71.7,68.3,99,90,62,29.55,29.42,4,1,11,0.14
2013-9-1,92.5,75.4,65.3,73.8,69.8,65.0,99,85,48,29.55,29.42,6,1,14,0.33
2013-9-2,88.9,73.3,67.6,77.6,70.1,64.3,99,90,63,29.48,29.34,5,1,14,0.06
2013-9-3,74.7,65.3,59.5,64.3,60.7,57.5,99,86,60,29.61,29.45,6,2,16,0.01
2013-9-4,86.9,69.1,51.6,65.4,58.6,50.0,99,73,34,29.65,29.60,8,2,20,0.07
2013-9-5,73.8,62.7,47.7,65.2,52.4,42.6,99,73,39,29.88,29.63,6,1,14,0.00
2013-9-6,75.9,58.6,42.6,56.7,48.6,42.3,99,75,35,29.94,29.78,4,1,10,0.00
2013-9-7,67.5,59.7,50.9,64.5,57.5,50.6,99,93,76,29.78,29.55,3,1,7,0.12
2013-9-8,74.5,62.8,47.7,63.0,53.4,42.4,99,76,34,29.78,29.51,6,2,19,0.12
2013-9-9,80.1,61.1,45.5,62.8,52.9,44.5,99,77,43,29.83,29.67,8,2,17,0.00
2013-9-10,93.9,76.5,65.3,79.9,70.9,59.7,99,84,59,29.74,29.59,9,3,19,0.81
2013-9-11,98.4,82.1,70.7,81.0,74.7,69.9,99,80,48,29.72,29.59,6,2,11,0.00
2013-9-12,77.4,70.1,62.4,73.4,68.3,61.8,99,94,81,29.61,29.40,6,1,11,0.12
2013-9-13,63.0,56.4,50.9,62.1,55.8,50.6,99,98,92,29.68,29.40,3,1,11,0.80
2013-9-14,71.1,54.4,43.9,67.4,49.2,43.4,99,84,48,30.00,29.66,4,1,15,3.66
2013-9-15,70.0,56.6,43.5,58.7,51.3,43.0,99,84,54,29.99,29.87,4,1,14,0.01
2013-9-16,61.0,52.6,45.0,55.3,50.5,43.8,99,93,63,30.21,29.90,6,1,13,0.14
2013-9-17,71.4,52.2,35.6,50.8,42.6,34.8,99,76,33,30.32,30.14,4,1,11,0.01
2013-9-18,79.2,57.8,42.4,55.6,48.3,42.2,99,76,33,30.14,29.95,5,1,10,0.00
2013-9-19,85.1,63.7,46.2,60.3,52.9,45.2,99,73,41,29.97,29.86,4,1,10,0.00
2013-9-20,83.8,65.1,49.6,63.4,54.2,49.0,99,74,33,30.62,30.53,6,1,10,0.00
2013-9-21,86.2,69.5,50.5,67.9,61.6,50.3,99,80,40,30.58,29.89,7,2,18,0.47
2013-9-22,62.6,54.2,49.5,56.4,48.7,42.5,99,83,53,30.26,29.96,6,2,16,0.01
2013-9-23,65.8,52.5,41.2,49.4,44.5,40.9,99,76,47,30.40,30.24,4,1,12,0.00
2013-9-24,71.1,52.0,37.0,53.2,44.8,36.1,99,80,43,30.37,30.24,4,1,14,0.00
2013-9-25,76.1,54.7,38.8,58.2,47.1,38.6,99,80,38,30.26,30.21,3,1,9,0.00
2013-9-26,77.2,56.7,41.4,58.8,49.8,-5.6,99,81,48,30.40,30.25,5,1,11,0.00
2013-9-27,76.3,56.7,41.4,60.7,50.8,41.1,99,83,54,30.51,30.40,4,1,11,0.00
2013-9-28,77.0,58.4,44.2,58.9,52.0,43.7,99,82,48,30.57,30.44,6,2,14,0.00
2013-9-29,78.8,61.2,47.7,56.9,52.7,47.2,99,78,43,30.45,30.27,8,2,17,0.01
2013-9-30,88.7,64.9,51.1,64.2,57.0,50.7,99,79,40,30.29,30.20,4,1,9,0.00
2013-10-1,84.2,66.0,53.4,65.3,59.5,52.8,99,83,46,30.28,30.17,4,1,9,0.04
2013-10-2,84.6,64.2,49.6,67.6,57.8,46.5,99,83,35,30.34,30.17,7,1,13,0.00
2013-10-3,78.3,59.4,43.7,59.7,52.0,43.2,99,81,35,30.40,30.29,3,1,9,0.01
2013-10-4,67.8,61.7,58.5,66.5,61.2,58.1,99,98,95,30.32,30.25,3,0,6,0.12
2013-10-5,68.2,62.1,59.7,63.1,60.8,59.3,99,96,83,30.35,30.29,3,1,8,0.00
2013-10-6,81.5,67.3,59.5,74.1,65.3,59.3,99,94,77,30.29,30.04,8,3,19,0.47
2013-10-7,72.7,62.8,52.3,67.5,58.6,46.8,99,86,61,30.27,29.88,9,4,31,0.91
2013-10-8,72.9,54.7,42.1,55.1,48.0,41.8,99,81,41,30.60,30.26,4,1,15,0.01
2013-10-9,75.4,52.6,37.4,55.5,44.4,33.3,99,80,28,30.66,30.53,4,1,11,0.00
2013-10-10,70.2,52.0,40.1,54.3,46.4,39.8,99,84,47,30.53,30.40,3,0,8,0.00
2013-10-11,81.9,54.3,42.4,58.1,48.8,42.2,99,85,36,30.40,30.34,3,0,7,0.00
2013-10-12,81.9,57.5,37.8,56.0,46.7,37.5,99,75,23,30.46,30.36,4,1,9,0.01
2013-10-13,74.7,61.9,48.9,59.3,55.3,48.2,99,80,53,30.54,30.46,6,3,14,0.11
2013-10-14,59.2,57.6,56.3,58.9,57.3,56.0,99,99,99,30.57,30.50,5,2,11,0.34
2013-10-15,72.1,56.8,45.1,59.5,53.0,44.3,99,89,59,30.53,30.23,5,1,13,0.01
2013-10-16,65.7,59.8,56.5,59.0,55.3,49.0,99,86,67,30.23,30.02,8,3,16,0.25
2013-10-17,73.2,57.8,44.6,56.0,51.6,43.8,99,82,43,30.12,29.90,5,2,17,0.34
2013-10-18,67.5,54.2,44.4,53.0,46.6,38.8,99,79,43,30.15,29.93,9,3,22,0.08
2013-10-19,64.8,54.2,45.9,52.1,47.1,43.2,99,79,49,30.14,29.88,9,3,23,0.12
2013-10-20,60.3,49.2,40.5,46.6,42.6,38.7,99,79,47,30.25,29.97,9,4,20,0.00
2013-10-21,66.6,55.4,43.9,47.0,43.7,39.3,98,68,38,30.25,30.03,8,3,17,0.00
2013-10-22,58.3,48.7,37.2,51.7,40.2,29.6,99,75,36,30.10,29.98,8,2,19,0.08
2013-10-23,51.1,41.0,34.2,44.2,37.9,31.0,99,89,62,30.08,29.93,4,1,14,0.07
2013-10-24,52.3,41.4,34.2,39.7,34.7,28.9,99,79,43,30.24,30.00,11,4,25,0.08
2013-10-25,55.4,43.1,37.2,43.7,38.6,35.1,99,86,51,30.42,30.24,6,2,14,0.02
2013-10-26,48.2,44.5,41.0,39.5,34.1,28.6,94,67,53,30.38,30.03,12,5,27,0.00
2013-10-27,56.1,45.1,39.2,40.5,36.8,31.9,95,74,46,30.31,30.05,9,3,17,0.00
2013-10-28,56.1,42.9,27.1,42.7,33.6,24.4,97,72,32,30.65,30.27,7,2,17,0.00
2013-10-29,56.1,37.2,22.8,32.8,27.2,20.8,99,70,31,30.72,30.56,5,1,8,0.00
2013-10-30,65.7,45.0,37.2,44.7,39.2,29.0,99,83,42,30.56,30.37,4,1,8,0.04
2013-10-31,60.3,53.6,40.8,60.0,52.9,39.8,99,97,93,30.38,29.71,8,4,17,0.48
2013-11-1,68.2,59.9,48.9,61.0,51.3,42.7,99,76,43,29.95,29.46,14,7,38,0.30
2013-11-2,55.6,47.1,39.0,49.2,45.5,38.2,99,94,73,30.22,29.86,6,2,14,0.27
2013-11-3,53.6,36.1,27.5,38.2,27.8,19.2,97,73,42,30.78,30.06,6,2,12,0.00
2013-11-4,49.1,36.1,23.7,35.7,21.9,8.7,99,61,22,30.90,30.74,6,2,13,0.00
2013-11-5,55.4,46.5,37.0,40.3,30.7,21.7,70,54,39,30.75,30.59,9,5,17,0.00
2013-11-6,63.9,55.3,47.3,53.0,46.9,40.3,87,74,54,30.61,30.07,10,6,23,0.00
2013-11-7,59.0,46.2,38.1,55.1,41.6,32.2,99,84,64,30.22,30.02,8,4,20,0.35
2013-11-8,44.8,38.8,34.0,38.2,32.1,29.0,99,77,59,30.45,30.16,6,3,19,0.13
2013-11-9,46.9,42.5,36.5,36.5,32.4,28.0,82,68,53,30.45,30.03,8,3,15,0.00
2013-11-10,50.2,44.3,37.8,42.8,37.8,33.3,98,79,61,30.37,30.01,10,5,39,0.22
2013-11-11,47.5,39.9,32.0,38.9,33.3,26.6,97,78,53,30.38,30.16,10,4,24,0.08
2013-11-12,36.9,30.4,27.5,27.7,22.0,13.5,91,71,51,30.61,30.33,8,3,17,0.01
2013-11-13,42.8,31.9,21.0,25.3,17.6,10.9,73,55,44,30.66,30.34,10,4,21,0.01
2013-11-14,58.1,40.5,23.9,28.6,20.0,9.5,73,46,22,30.36,30.26,10,3,22,0.00
2013-11-15,54.5,42.7,33.8,33.4,27.1,20.5,77,55,29,30.37,30.30,8,2,15,0.00
2013-11-16,63.1,49.0,35.2,42.2,35.0,26.9,79,60,34,30.50,30.33,5,2,11,0.00
2013-11-17,59.5,54.6,48.7,56.6,51.4,42.2,98,89,78,30.33,29.63,12,7,24,0.13
2013-11-18,59.5,49.2,37.6,56.9,38.0,27.4,98,66,47,30.10,29.61,15,9,41,0.30
2013-11-19,39.6,36.0,31.5,33.7,27.1,21.7,97,70,54,30.65,30.10,9,4,24,0.09
2013-11-20,44.1,32.3,22.6,22.6,17.6,13.5,74,56,31,30.84,30.67,6,3,10,0.00
2013-11-21,46.6,39.1,28.4,38.5,25.7,14.1,90,59,43,30.74,30.51,9,5,17,0.00
2013-11-22,47.1,42.9,36.0,46.9,41.7,29.6,99,96,77,30.51,30.19,9,2,20,0.25
2013-11-23,40.6,30.5,20.1,30.5,21.7,4.9,96,71,31,30.38,30.20,13,6,30,0.01
2013-11-24,31.3,21.4,17.8,17.6,13.3,5.7,87,72,42,30.62,30.33,8,4,20,0.00
2013-11-25,52.3,28.2,18.5,18.2,13.6,7.3,85,56,31,30.60,29.67,9,5,16,0.01
2013-11-26,37.6,34.0,32.7,31.9,27.2,13.9,96,78,43,30.41,30.05,10,2,17,0.01
2013-11-27,37.6,32.2,24.6,34.3,28.5,15.8,99,87,67,30.09,29.81,8,3,21,0.38
2013-11-28,36.3,25.3,21.7,17.8,13.6,6.7,81,62,32,30.67,30.09,8,4,21,0.01
2013-11-29,38.1,23.5,8.6,23.2,13.0,1.2,86,66,33,30.98,30.67,5,1,13,0.05
2013-11-30,33.1,23.7,7.9,19.5,12.1,0.8,83,62,44,30.98,30.47,10,4,22,0.00
2013-12-1,39.9,34.5,31.5,32.4,26.2,19.3,94,72,59,30.47,30.22,7,3,14,0.11
2013-12-2,41.9,36.2,32.9,36.8,33.1,30.0,97,89,77,30.22,30.11,2,0,4,0.00
2013-12-3,51.3,34.6,24.8,35.1,27.4,21.0,94,77,41,30.27,30.14,4,1,8,0.00
2013-12-4,52.9,37.5,26.4,39.0,32.5,23.0,93,83,59,30.30,30.21,6,2,9,0.01
2013-12-5,57.7,51.0,41.2,52.6,45.2,32.4,90,81,63,30.25,30.00,9,5,26,0.01
2013-12-6,42.4,35.0,30.9,34.8,27.9,23.7,92,76,62,30.49,30.24,4,2,11,0.31
2013-12-7,38.3,30.3,27.0,27.1,18.1,8.7,85,61,33,30.78,30.46,8,4,18,0.00
2013-12-8,36.1,26.9,21.0,22.7,13.0,8.1,86,56,34,30.82,30.50,8,4,14,0.00
2013-12-9,41.7,35.0,26.2,35.7,28.3,20.2,90,77,61,30.50,30.08,12,7,24,0.06
2013-12-10,35.4,27.4,21.7,23.3,13.8,4.5,84,57,43,30.28,30.16,10,4,21,0.00
2013-12-11,28.8,23.4,18.1,16.3,9.0,3.9,76,54,38,30.49,30.28,12,6,27,0.00
2013-12-12,35.2,18.2,11.1,10.8,6.7,-0.2,77,61,39,30.54,30.19,11,4,22,0.00
2013-12-13,25.2,19.9,11.3,19.1,9.7,2.2,82,64,48,30.64,30.22,9,4,22,0.00
2013-12-14,15.6,11.9,6.6,9.2,2.2,-10.8,77,65,42,30.71,30.04,10,6,18,0.00
2013-12-15,28.0,21.4,15.1,21.3,14.2,5.0,84,74,48,30.06,29.82,10,4,23,0.00
2013-12-16,25.0,14.6,-6.9,15.3,5.1,-16.5,76,65,48,30.44,30.06,11,3,25,0.00
2013-12-17,28.2,14.0,-11.6,22.0,7.0,-23.0,84,73,54,30.42,30.14,6,2,11,0.00
2013-12-18,34.7,28.7,20.1,22.5,18.9,12.9,86,68,48,30.31,30.16,7,3,15,0.05
2013-12-19,47.1,35.2,26.8,30.1,23.7,14.8,82,63,43,30.30,30.13,7,3,16,0.01
2013-12-20,44.8,39.7,34.0,40.9,35.2,29.0,94,84,71,30.26,30.03,4,1,8,0.09
2013-12-21,51.3,41.5,32.2,50.3,40.3,30.9,99,95,92,30.13,29.98,6,2,17,0.58
2013-12-22,45.9,36.1,31.8,44.0,34.8,30.7,99,95,86,30.22,29.80,5,1,14,0.18
2013-12-23,41.0,36.0,27.7,40.0,33.1,23.0,99,89,78,30.50,30.20,5,1,14,0.02
2013-12-24,27.7,21.3,13.8,23.3,16.0,6.8,87,80,66,30.71,30.43,0,0,0,0.00
2013-12-25,25.0,16.0,0.3,11.6,5.6,-7.9,79,64,45,30.77,30.47,6,0,16,0.00
2013-12-26,38.5,28.0,23.5,32.6,18.6,11.0,84,68,53,30.50,30.29,10,4,18,0.02
2013-12-27,33.4,26.7,21.2,25.6,18.3,8.9,87,71,51,30.50,30.36,10,3,19,0.01
2013-12-28,52.5,35.5,27.3,35.4,27.9,23.1,91,74,50,30.36,30.19,6,2,16,0.00
2013-12-29,44.1,37.0,28.2,38.7,32.5,24.9,98,84,58,30.19,29.88,8,2,23,0.18
2013-12-30,33.8,20.2,10.9,29.2,12.3,2.0,87,72,43,30.46,29.98,6,0,21,0.01
2013-12-31,27.9,18.8,13.8,16.6,5.6,-5.7,76,57,36,30.46,30.19,14,4,33,0.00
2014-1-1,26.1,18.1,11.8,12.7,4.2,-1.2,69,54,43,30.62,30.46,8,4,22,0.00
2014-1-2,14.7,9.2,3.9,7.7,1.6,-4.2,75,70,67,30.56,30.20,10,5,23,0.00